sensor_id;sensor_type;location;lat;lon;timestamp;P1;durP1;ratioP1;P2;durP2;ratioP2
54368;SDS011;40266;52.434;17.056;2023-07-29T13:42:20;3.00;;;1.70;;
54368;SDS011;40266;52.434;17.056;2023-07-29T13:45:03;2.40;;;2.20;;
54368;SDS011;40266;52.434;17.056;2023-07-29T13:47:47;2.50;;;2.10;;
54368;SDS011;40266;52.434;17.056;2023-07-29T13:50:31;3.60;;;2.00;;
54368;SDS011;40266;52.434;17.056;2023-07-29T13:53:14;2.70;;;2.00;;
54368;SDS011;40266;52.434;17.056;2023-07-29T13:55:57;1.70;;;1.60;;
54368;SDS011;40266;52.434;17.056;2023-07-29T13:58:40;3.10;;;2.30;;
54368;SDS011;40266;52.434;17.056;2023-07-29T14:01:23;4.80;;;2.40;;
54368;SDS011;40266;52.434;17.056;2023-07-29T14:04:06;3.50;;;2.40;;
54368;SDS011;40266;52.434;17.056;2023-07-29T14:06:49;11.50;;;2.60;;
54368;SDS011;40266;52.434;17.056;2023-07-29T14:09:40;9.60;;;3.10;;
54368;SDS011;40266;52.434;17.056;2023-07-29T14:12:25;5.40;;;2.80;;
54368;SDS011;40266;52.434;17.056;2023-07-29T14:15:08;6.20;;;2.90;;
54368;SDS011;40266;52.434;17.056;2023-07-29T14:17:51;4.40;;;2.70;;
54368;SDS011;40266;52.434;17.056;2023-07-29T14:20:34;3.20;;;2.30;;
54368;SDS011;40266;52.434;17.056;2023-07-29T14:23:17;7.40;;;3.20;;
54368;SDS011;40266;52.434;17.056;2023-07-29T14:26:00;5.30;;;2.80;;
54368;SDS011;40266;52.434;17.056;2023-07-29T14:28:43;7.50;;;2.90;;
54368;SDS011;40266;52.434;17.056;2023-07-29T14:31:26;7.50;;;3.00;;
54368;SDS011;40266;52.434;17.056;2023-07-29T14:34:09;9.50;;;3.60;;
54368;SDS011;40266;52.434;17.056;2023-07-29T14:36:53;7.00;;;2.70;;
54368;SDS011;40266;52.434;17.056;2023-07-29T14:39:36;6.70;;;3.20;;
54368;SDS011;40266;52.434;17.056;2023-07-29T14:42:19;6.30;;;3.10;;
54368;SDS011;40266;52.434;17.056;2023-07-29T14:45:02;7.10;;;3.00;;
54368;SDS011;40266;52.434;17.056;2023-07-29T14:47:45;5.20;;;3.10;;
54368;SDS011;40266;52.434;17.056;2023-07-29T14:50:28;3.10;;;2.20;;
54368;SDS011;40266;52.434;17.056;2023-07-29T14:53:11;4.90;;;1.90;;
54368;SDS011;40266;52.434;17.056;2023-07-29T14:55:54;5.40;;;2.10;;
54368;SDS011;40266;52.434;17.056;2023-07-29T14:58:37;3.40;;;1.70;;
54368;SDS011;40266;52.434;17.056;2023-07-29T15:01:20;4.80;;;2.00;;
54368;SDS011;40266;52.434;17.056;2023-07-29T15:04:03;3.10;;;2.00;;
54368;SDS011;40266;52.434;17.056;2023-07-29T15:06:46;2.50;;;1.40;;
54368;SDS011;40266;52.434;17.056;2023-07-29T15:09:29;2.60;;;1.90;;
54368;SDS011;40266;52.434;17.056;2023-07-29T15:12:12;4.20;;;2.30;;
54368;SDS011;40266;52.434;17.056;2023-07-29T15:14:55;2.70;;;1.80;;
54368;SDS011;40266;52.434;17.056;2023-07-29T15:17:38;3.20;;;1.90;;
54368;SDS011;40266;52.434;17.056;2023-07-29T15:20:21;3.40;;;1.70;;
54368;SDS011;40266;52.434;17.056;2023-07-29T15:23:04;3.60;;;2.40;;
54368;SDS011;40266;52.434;17.056;2023-07-29T15:25:47;4.80;;;1.80;;
54368;SDS011;40266;52.434;17.056;2023-07-29T15:28:31;3.50;;;2.50;;
54368;SDS011;40266;52.434;17.056;2023-07-29T15:31:14;3.70;;;2.10;;
54368;SDS011;40266;52.434;17.056;2023-07-29T15:33:58;3.60;;;2.30;;
54368;SDS011;40266;52.434;17.056;2023-07-29T15:36:40;2.30;;;2.10;;
54368;SDS011;40266;52.434;17.056;2023-07-29T15:39:23;3.60;;;2.30;;
54368;SDS011;40266;52.434;17.056;2023-07-29T15:42:07;2.30;;;2.00;;
54368;SDS011;40266;52.434;17.056;2023-07-29T15:44:50;2.10;;;1.90;;
54368;SDS011;40266;52.434;17.056;2023-07-29T15:47:33;5.00;;;2.70;;
54368;SDS011;40266;52.434;17.056;2023-07-29T15:50:16;9.10;;;2.50;;
54368;SDS011;40266;52.434;17.056;2023-07-29T15:52:59;6.90;;;2.90;;
54368;SDS011;40266;52.434;17.056;2023-07-29T15:55:42;3.80;;;2.80;;
54368;SDS011;40266;52.434;17.056;2023-07-29T15:58:25;6.70;;;2.40;;
54368;SDS011;40266;52.434;17.056;2023-07-29T16:01:07;3.30;;;2.80;;
54368;SDS011;40266;52.434;17.056;2023-07-29T16:03:50;3.60;;;2.70;;
54368;SDS011;40266;52.434;17.056;2023-07-29T16:06:33;6.00;;;3.20;;
54368;SDS011;40266;52.434;17.056;2023-07-29T16:09:19;7.60;;;2.70;;
54368;SDS011;40266;52.434;17.056;2023-07-29T16:12:04;4.60;;;2.90;;
54368;SDS011;40266;52.434;17.056;2023-07-29T16:14:47;3.40;;;2.80;;
54368;SDS011;40266;52.434;17.056;2023-07-29T16:17:29;3.70;;;2.70;;
54368;SDS011;40266;52.434;17.056;2023-07-29T16:20:12;3.70;;;2.40;;
54368;SDS011;40266;52.434;17.056;2023-07-29T16:22:55;5.30;;;2.90;;
54368;SDS011;40266;52.434;17.056;2023-07-29T16:25:38;3.50;;;3.00;;
54368;SDS011;40266;52.434;17.056;2023-07-29T16:28:21;6.20;;;3.00;;
54368;SDS011;40266;52.434;17.056;2023-07-29T16:31:04;3.10;;;2.80;;
54368;SDS011;40266;52.434;17.056;2023-07-29T16:33:47;3.60;;;2.80;;
54368;SDS011;40266;52.434;17.056;2023-07-29T16:36:32;9.20;;;3.40;;
54368;SDS011;40266;52.434;17.056;2023-07-29T16:39:17;6.10;;;3.30;;
54368;SDS011;40266;52.434;17.056;2023-07-29T16:42:00;5.00;;;2.80;;
54368;SDS011;40266;52.434;17.056;2023-07-29T16:44:47;4.30;;;3.00;;
54368;SDS011;40266;52.434;17.056;2023-07-29T16:47:30;5.60;;;2.80;;
54368;SDS011;40266;52.434;17.056;2023-07-29T16:50:13;1.90;;;1.40;;
54368;SDS011;40266;52.434;17.056;2023-07-29T16:52:56;2.70;;;1.90;;
54368;SDS011;40266;52.434;17.056;2023-07-29T16:55:41;3.00;;;1.60;;
54368;SDS011;40266;52.434;17.056;2023-07-29T16:58:24;3.10;;;1.70;;
54368;SDS011;40266;52.434;17.056;2023-07-29T17:01:07;1.80;;;1.50;;
54368;SDS011;40266;52.434;17.056;2023-07-29T17:03:50;4.00;;;1.30;;
54368;SDS011;40266;52.434;17.056;2023-07-29T17:06:33;2.70;;;1.40;;
54368;SDS011;40266;52.434;17.056;2023-07-29T17:09:16;11.10;;;2.10;;
54368;SDS011;40266;52.434;17.056;2023-07-29T17:12:01;3.10;;;1.70;;
54368;SDS011;40266;52.434;17.056;2023-07-29T17:14:44;7.70;;;2.10;;
54368;SDS011;40266;52.434;17.056;2023-07-29T17:17:27;8.50;;;2.30;;
54368;SDS011;40266;52.434;17.056;2023-07-29T17:20:10;9.20;;;2.90;;
54368;SDS011;40266;52.434;17.056;2023-07-29T17:22:53;11.10;;;2.90;;
54368;SDS011;40266;52.434;17.056;2023-07-29T17:25:36;5.40;;;2.80;;
54368;SDS011;40266;52.434;17.056;2023-07-29T17:28:19;6.60;;;2.60;;
54368;SDS011;40266;52.434;17.056;2023-07-29T17:31:02;7.00;;;2.60;;
54368;SDS011;40266;52.434;17.056;2023-07-29T17:33:45;11.00;;;3.00;;
54368;SDS011;40266;52.434;17.056;2023-07-29T17:36:28;8.30;;;2.70;;
54368;SDS011;40266;52.434;17.056;2023-07-29T17:39:12;7.00;;;2.60;;
54368;SDS011;40266;52.434;17.056;2023-07-29T17:41:55;6.40;;;2.70;;
54368;SDS011;40266;52.434;17.056;2023-07-29T17:44:38;6.90;;;2.40;;
54368;SDS011;40266;52.434;17.056;2023-07-29T17:47:21;6.20;;;2.50;;
54368;SDS011;40266;52.434;17.056;2023-07-29T17:50:04;12.10;;;3.40;;
54368;SDS011;40266;52.434;17.056;2023-07-29T17:52:48;5.70;;;3.10;;
54368;SDS011;40266;52.434;17.056;2023-07-29T17:55:35;7.60;;;3.30;;
54368;SDS011;40266;52.434;17.056;2023-07-29T17:58:19;10.90;;;3.40;;
54368;SDS011;40266;52.434;17.056;2023-07-29T18:01:02;7.80;;;3.40;;
54368;SDS011;40266;52.434;17.056;2023-07-29T18:03:46;7.20;;;3.40;;
54368;SDS011;40266;52.434;17.056;2023-07-29T18:06:29;5.60;;;3.60;;
54368;SDS011;40266;52.434;17.056;2023-07-29T18:09:12;9.60;;;4.00;;
54368;SDS011;40266;52.434;17.056;2023-07-29T18:11:56;7.40;;;4.20;;
54368;SDS011;40266;52.434;17.056;2023-07-29T18:14:43;9.80;;;4.50;;
54368;SDS011;40266;52.434;17.056;2023-07-29T18:17:27;6.30;;;3.60;;
54368;SDS011;40266;52.434;17.056;2023-07-29T18:20:10;5.50;;;3.50;;
54368;SDS011;40266;52.434;17.056;2023-07-29T18:22:53;10.20;;;4.00;;
54368;SDS011;40266;52.434;17.056;2023-07-29T18:25:47;11.10;;;4.00;;
54368;SDS011;40266;52.434;17.056;2023-07-29T18:28:35;7.10;;;4.00;;
54368;SDS011;40266;52.434;17.056;2023-07-29T18:31:18;7.50;;;4.00;;
54368;SDS011;40266;52.434;17.056;2023-07-29T18:34:01;8.10;;;4.00;;
54368;SDS011;40266;52.434;17.056;2023-07-29T18:36:44;7.00;;;3.80;;
54368;SDS011;40266;52.434;17.056;2023-07-29T18:39:28;8.10;;;4.30;;
54368;SDS011;40266;52.434;17.056;2023-07-29T18:42:11;5.00;;;3.30;;
54368;SDS011;40266;52.434;17.056;2023-07-29T18:44:55;9.70;;;3.80;;
54368;SDS011;40266;52.434;17.056;2023-07-29T18:47:38;6.00;;;4.00;;
54368;SDS011;40266;52.434;17.056;2023-07-29T18:50:21;6.30;;;4.00;;
54368;SDS011;40266;52.434;17.056;2023-07-29T18:53:04;5.60;;;3.70;;
54368;SDS011;40266;52.434;17.056;2023-07-29T18:55:47;10.90;;;4.10;;
54368;SDS011;40266;52.434;17.056;2023-07-29T18:58:30;7.10;;;4.30;;
54368;SDS011;40266;52.434;17.056;2023-07-29T19:01:13;5.40;;;3.60;;
54368;SDS011;40266;52.434;17.056;2023-07-29T19:03:56;7.50;;;3.70;;
54368;SDS011;40266;52.434;17.056;2023-07-29T19:06:39;5.90;;;3.80;;
54368;SDS011;40266;52.434;17.056;2023-07-29T19:09:22;6.90;;;5.20;;
54368;SDS011;40266;52.434;17.056;2023-07-29T19:12:08;6.00;;;3.70;;
54368;SDS011;40266;52.434;17.056;2023-07-29T19:14:51;5.50;;;3.70;;
54368;SDS011;40266;52.434;17.056;2023-07-29T19:17:34;5.80;;;3.90;;
54368;SDS011;40266;52.434;17.056;2023-07-29T19:20:18;7.50;;;4.10;;
54368;SDS011;40266;52.434;17.056;2023-07-29T19:23:01;9.40;;;3.90;;
54368;SDS011;40266;52.434;17.056;2023-07-29T19:25:44;7.30;;;4.30;;
54368;SDS011;40266;52.434;17.056;2023-07-29T19:28:28;7.30;;;4.40;;
54368;SDS011;40266;52.434;17.056;2023-07-29T19:31:11;7.40;;;4.10;;
54368;SDS011;40266;52.434;17.056;2023-07-29T19:33:56;6.90;;;4.40;;
54368;SDS011;40266;52.434;17.056;2023-07-29T19:36:39;5.00;;;4.30;;
54368;SDS011;40266;52.434;17.056;2023-07-29T19:39:22;6.20;;;4.00;;
54368;SDS011;40266;52.434;17.056;2023-07-29T19:42:05;9.70;;;4.40;;
54368;SDS011;40266;52.434;17.056;2023-07-29T19:44:48;7.50;;;4.50;;
54368;SDS011;40266;52.434;17.056;2023-07-29T19:47:31;8.80;;;4.50;;
54368;SDS011;40266;52.434;17.056;2023-07-29T19:50:14;7.40;;;5.10;;
54368;SDS011;40266;52.434;17.056;2023-07-29T19:52:57;14.90;;;4.60;;
54368;SDS011;40266;52.434;17.056;2023-07-29T19:55:40;8.90;;;4.40;;
54368;SDS011;40266;52.434;17.056;2023-07-29T19:58:23;7.10;;;4.60;;
54368;SDS011;40266;52.434;17.056;2023-07-29T20:01:05;8.60;;;4.20;;
54368;SDS011;40266;52.434;17.056;2023-07-29T20:03:49;4.70;;;4.10;;
54368;SDS011;40266;52.434;17.056;2023-07-29T20:06:32;40.10;;;6.50;;
54368;SDS011;40266;52.434;17.056;2023-07-29T20:09:16;7.80;;;4.80;;
54368;SDS011;40266;52.434;17.056;2023-07-29T20:11:59;8.00;;;4.70;;
54368;SDS011;40266;52.434;17.056;2023-07-29T20:14:42;9.80;;;4.80;;
54368;SDS011;40266;52.434;17.056;2023-07-29T20:17:25;9.70;;;5.00;;
54368;SDS011;40266;52.434;17.056;2023-07-29T20:20:09;9.20;;;5.00;;
54368;SDS011;40266;52.434;17.056;2023-07-29T20:22:53;15.10;;;6.50;;
54368;SDS011;40266;52.434;17.056;2023-07-29T20:25:36;83.40;;;10.10;;
54368;SDS011;40266;52.434;17.056;2023-07-29T20:28:19;10.20;;;5.50;;
54368;SDS011;40266;52.434;17.056;2023-07-29T20:31:03;60.60;;;9.90;;
54368;SDS011;40266;52.434;17.056;2023-07-29T20:33:47;9.20;;;5.30;;
54368;SDS011;40266;52.434;17.056;2023-07-29T20:36:29;9.20;;;5.80;;
54368;SDS011;40266;52.434;17.056;2023-07-29T20:39:13;9.80;;;5.80;;
54368;SDS011;40266;52.434;17.056;2023-07-29T20:41:57;11.20;;;6.10;;
54368;SDS011;40266;52.434;17.056;2023-07-29T20:44:40;10.60;;;6.40;;
54368;SDS011;40266;52.434;17.056;2023-07-29T20:47:23;12.60;;;6.70;;
54368;SDS011;40266;52.434;17.056;2023-07-29T20:50:06;15.40;;;7.10;;
54368;SDS011;40266;52.434;17.056;2023-07-29T20:52:50;13.40;;;7.30;;
54368;SDS011;40266;52.434;17.056;2023-07-29T20:55:34;17.30;;;7.10;;
54368;SDS011;40266;52.434;17.056;2023-07-29T20:58:17;13.10;;;6.70;;
54368;SDS011;40266;52.434;17.056;2023-07-29T21:01:03;14.80;;;7.10;;
54368;SDS011;40266;52.434;17.056;2023-07-29T21:03:46;14.80;;;7.30;;
54368;SDS011;40266;52.434;17.056;2023-07-29T21:06:29;15.70;;;7.70;;
54368;SDS011;40266;52.434;17.056;2023-07-29T21:09:12;12.90;;;6.60;;
54368;SDS011;40266;52.434;17.056;2023-07-29T21:11:55;14.30;;;6.50;;
54368;SDS011;40266;52.434;17.056;2023-07-29T21:14:39;13.10;;;6.80;;
54368;SDS011;40266;52.434;17.056;2023-07-29T21:17:22;12.90;;;6.30;;
54368;SDS011;40266;52.434;17.056;2023-07-29T21:20:06;16.70;;;7.50;;
54368;SDS011;40266;52.434;17.056;2023-07-29T21:22:50;11.50;;;6.50;;
54368;SDS011;40266;52.434;17.056;2023-07-29T21:25:33;14.10;;;7.10;;
54368;SDS011;40266;52.434;17.056;2023-07-29T21:28:16;13.60;;;6.30;;
54368;SDS011;40266;52.434;17.056;2023-07-29T21:31:01;12.20;;;6.60;;
54368;SDS011;40266;52.434;17.056;2023-07-29T21:33:45;13.30;;;5.60;;
54368;SDS011;40266;52.434;17.056;2023-07-29T21:36:28;14.40;;;6.70;;
54368;SDS011;40266;52.434;17.056;2023-07-29T21:39:11;10.60;;;6.20;;
54368;SDS011;40266;52.434;17.056;2023-07-29T21:41:54;12.90;;;6.30;;
54368;SDS011;40266;52.434;17.056;2023-07-29T21:44:38;11.00;;;6.30;;
54368;SDS011;40266;52.434;17.056;2023-07-29T21:47:21;15.40;;;7.10;;
54368;SDS011;40266;52.434;17.056;2023-07-29T21:50:04;11.00;;;5.60;;
54368;SDS011;40266;52.434;17.056;2023-07-29T21:52:48;12.80;;;6.80;;
54368;SDS011;40266;52.434;17.056;2023-07-29T21:55:31;10.40;;;6.10;;
54368;SDS011;40266;52.434;17.056;2023-07-29T21:58:14;10.70;;;6.50;;
54368;SDS011;40266;52.434;17.056;2023-07-29T22:00:57;12.70;;;6.30;;
54368;SDS011;40266;52.434;17.056;2023-07-29T22:03:40;15.50;;;7.20;;
54368;SDS011;40266;52.434;17.056;2023-07-29T22:06:23;15.00;;;7.20;;
54368;SDS011;40266;52.434;17.056;2023-07-29T22:09:08;12.10;;;6.90;;
54368;SDS011;40266;52.434;17.056;2023-07-29T22:11:51;10.50;;;6.30;;
54368;SDS011;40266;52.434;17.056;2023-07-29T22:14:34;12.90;;;6.70;;
54368;SDS011;40266;52.434;17.056;2023-07-29T22:17:17;11.10;;;6.50;;
54368;SDS011;40266;52.434;17.056;2023-07-29T22:20:01;12.30;;;7.20;;
54368;SDS011;40266;52.434;17.056;2023-07-29T22:22:45;14.60;;;6.90;;
54368;SDS011;40266;52.434;17.056;2023-07-29T22:25:28;12.10;;;7.20;;
54368;SDS011;40266;52.434;17.056;2023-07-29T22:28:11;13.30;;;7.30;;
54368;SDS011;40266;52.434;17.056;2023-07-29T22:30:57;13.80;;;7.50;;
54368;SDS011;40266;52.434;17.056;2023-07-29T22:33:48;15.60;;;8.10;;
54368;SDS011;40266;52.434;17.056;2023-07-29T22:36:31;14.40;;;8.70;;
54368;SDS011;40266;52.434;17.056;2023-07-29T22:39:14;17.60;;;8.00;;
54368;SDS011;40266;52.434;17.056;2023-07-29T22:41:57;16.00;;;8.40;;
54368;SDS011;40266;52.434;17.056;2023-07-29T22:44:40;13.60;;;7.80;;
54368;SDS011;40266;52.434;17.056;2023-07-29T22:47:23;14.20;;;8.70;;
54368;SDS011;40266;52.434;17.056;2023-07-29T22:50:07;14.70;;;9.10;;
54368;SDS011;40266;52.434;17.056;2023-07-29T22:52:51;14.00;;;8.60;;
54368;SDS011;40266;52.434;17.056;2023-07-29T22:55:34;14.70;;;9.00;;
54368;SDS011;40266;52.434;17.056;2023-07-29T22:58:20;22.00;;;10.20;;
54368;SDS011;40266;52.434;17.056;2023-07-29T23:01:03;22.10;;;10.60;;
54368;SDS011;40266;52.434;17.056;2023-07-29T23:03:46;16.00;;;8.80;;
54368;SDS011;40266;52.434;17.056;2023-07-29T23:06:29;18.20;;;8.50;;
54368;SDS011;40266;52.434;17.056;2023-07-29T23:09:13;15.70;;;9.00;;
54368;SDS011;40266;52.434;17.056;2023-07-29T23:11:56;19.40;;;8.10;;
54368;SDS011;40266;52.434;17.056;2023-07-29T23:14:39;72.70;;;12.40;;
54368;SDS011;40266;52.434;17.056;2023-07-29T23:17:25;11.70;;;7.80;;
54368;SDS011;40266;52.434;17.056;2023-07-29T23:20:13;12.70;;;8.20;;
54368;SDS011;40266;52.434;17.056;2023-07-29T23:22:56;18.90;;;9.20;;
54368;SDS011;40266;52.434;17.056;2023-07-29T23:25:39;16.70;;;9.80;;
54368;SDS011;40266;52.434;17.056;2023-07-29T23:28:22;19.00;;;9.60;;
54368;SDS011;40266;52.434;17.056;2023-07-29T23:31:05;16.10;;;9.50;;
54368;SDS011;40266;52.434;17.056;2023-07-29T23:33:48;17.10;;;9.50;;
54368;SDS011;40266;52.434;17.056;2023-07-29T23:36:31;21.90;;;10.90;;
54368;SDS011;40266;52.434;17.056;2023-07-29T23:39:14;20.90;;;10.30;;
54368;SDS011;40266;52.434;17.056;2023-07-29T23:41:57;18.20;;;11.40;;
54368;SDS011;40266;52.434;17.056;2023-07-29T23:44:40;24.80;;;11.60;;
54368;SDS011;40266;52.434;17.056;2023-07-29T23:47:23;24.20;;;12.80;;
54368;SDS011;40266;52.434;17.056;2023-07-29T23:50:07;32.10;;;14.80;;
54368;SDS011;40266;52.434;17.056;2023-07-29T23:52:50;28.80;;;15.60;;
54368;SDS011;40266;52.434;17.056;2023-07-29T23:55:33;32.90;;;15.30;;
54368;SDS011;40266;52.434;17.056;2023-07-29T23:58:17;26.30;;;16.10;;
